Friday, January 18, 2019, 3:08 AM EST
Back to Local

KFIT, Fitchburg, Fitchburg Municipal Airport

Location: Leominster, MA, United States Lat: 42.552
Local Time: 3:08 AM EST ( 8:08 GMT) Lon: -71.756
Time Zone: US/Eastern Elev: 347 ft

Show me the last for .
Show Coded

Time T Td Feel RH Dir Speed Gust Alt SLP Vis Weather Sky Remarks
2019-01-18 02:52 22 7 16 51 110° 5 - 30.24 30.26 10 BKN032 OVC065 None
2019-01-18 01:52 22 6 - 49 - Calm - 30.25 30.27 10 OVC090 None
2019-01-18 00:52 22 4 - 45 - Calm - 30.26 30.27 10 BKN080 OVC100 6-hr Min Temp (1am): 19.0°F
6-hr Max Temp (1am): 21.9°F
2019-01-17 23:52 21 7 - 53 - Calm - 30.28 30.30 10 BKN080 OVC100 24-hr Min Temp (12am): 9.0°F
24-hr Max Temp (12am): 28.0°F
2019-01-17 22:52 21 5 - 49 - Calm - 30.30 30.32 10 SCT090 OVC110 None
2019-01-17 21:52 21 3 - 44 - Calm - 30.31 30.33 10 OVC110 None
2019-01-17 20:52 21 3 - 44 - Calm - 30.31 30.33 10 BKN110 None
2019-01-17 19:52 19 4 - 50 - Calm - 30.32 30.34 10 CLR None
2019-01-17 18:52 21 1 - 40 - Calm - 30.32 30.34 10 CLR 6-hr Min Temp (7pm): 19.9°F
6-hr Max Temp (7pm): 28.0°F
2019-01-17 17:52 20 1 - 42 - Calm - 30.31 30.33 10 CLR None
2019-01-17 16:52 23 -3 - 31 - Calm - 30.31 30.33 10 CLR None
2019-01-17 15:52 27 -11 23 17 290° 3 - 30.30 30.32 10 CLR None
2019-01-17 14:52 28 -9 24 18 Variable 3 - 30.32 30.33 10 CLR None
2019-01-17 13:52 26 -8 19 21 230° 6 - 30.33 30.34 10 CLR None
2019-01-17 12:52 26 -9 18 20 320° 7 - 30.33 30.35 10 CLR 6-hr Min Temp (1pm): 9.0°F
6-hr Max Temp (1pm): 26.1°F
2019-01-17 11:52 25 -8 19 22 300° 5 - 30.36 30.38 10 CLR None
2019-01-17 10:52 21 -4 15 32 260° 5 - 30.39 30.41 10 CLR None
2019-01-17 09:52 19 -3 10 36 300° 7 - 30.40 30.42 10 CLR None
2019-01-17 08:52 15 -1 2 48 320° 12 - 30.39 30.40 10 CLR None
2019-01-17 07:52 12 1 - 60 - Calm - 30.36 30.38 10 CLR None
2019-01-17 06:52 10 0 0 62 320° 6 - 30.35 30.36 10 CLR 6-hr Min Temp (7am): 10.0°F
6-hr Max Temp (7am): 24.1°F
2019-01-17 05:52 12 0 4 57 320° 5 - 30.32 30.34 10 CLR None
2019-01-17 04:52 15 1 4 52 350° 8 - 30.31 30.32 10 CLR None
2019-01-17 03:52 16 1 5 50 320° 8 - 30.28 30.30 10 CLR None

Support USWX by starting your Amazon purchase here.